Time;durP1;ratioP1;P1;durP2;ratioP2;P2;SDS_P1;SDS_P2;PMS_P1;PMS_P2;Temp;Humidity;BMP_temperature;BMP_pressure;BME280_temperature;BME280_humidity;BME280_pressure;Samples;Min_cycle;Max_cycle;Signal;HPM_P1;HPM_P2
2022/01/29 00:01:30;;;;;;;14.43;6.57;;;;;;;0.70;61.15;95635.81;4914940;29;20043;-82
2022/01/29 00:03:55;;;;;;;16.08;5.70;;;;;;;0.84;60.36;95656.72;4947042;29;20040;-82
2022/01/29 00:06:21;;;;;;;16.10;5.35;;;;;;;0.66;61.64;95636.41;4946351;29;20186;-81
2022/01/29 00:08:47;;;;;;;14.85;5.38;;;;;;;0.14;60.45;95561.53;4946033;28;20507;-81
2022/01/29 00:11:15;;;;;;;11.48;5.63;;;;;;;-0.05;60.30;95534.41;4946522;29;20039;-81
2022/01/29 00:13:41;;;;;;;10.75;5.00;;;;;;;0.95;61.78;95692.66;4946481;29;20040;-81
2022/01/29 00:16:06;;;;;;;14.75;5.90;;;;;;;0.89;61.65;95703.91;4916160;29;20051;-81
2022/01/29 00:18:34;;;;;;;13.73;6.00;;;;;;;0.39;61.80;95612.91;4915537;29;20054;-82
2022/01/29 00:20:59;;;;;;;13.07;5.93;;;;;;;0.94;61.36;95715.34;4916179;29;20040;-81
2022/01/29 00:23:25;;;;;;;13.95;6.10;;;;;;;0.61;61.89;95665.72;4879209;29;20032;-81
2022/01/29 00:26:08;;;;;;;10.73;5.28;;;;;;;0.87;62.79;95703.28;860010;28;10003253;-81
2022/01/29 00:28:35;;;;;;;15.07;6.43;;;;;;;0.61;61.90;95657.09;4945997;29;20298;-81
2022/01/29 00:31:02;;;;;;;17.48;6.85;;;;;;;0.51;62.61;95647.03;4930259;29;20464;-81
2022/01/29 00:33:28;;;;;;;12.60;5.70;;;;;;;0.30;62.79;95611.50;4930502;29;20411;-82
2022/01/29 00:35:53;;;;;;;12.77;6.45;;;;;;;0.44;63.44;95640.22;4916261;29;20032;-81
2022/01/29 00:38:19;;;;;;;14.00;6.07;;;;;;;-0.21;63.86;95553.81;4916746;29;20476;-81
2022/01/29 00:40:45;;;;;;;15.93;7.15;;;;;;;0.62;64.29;95693.41;4916506;29;20491;-81
2022/01/29 00:43:11;;;;;;;12.30;6.45;;;;;;;0.16;64.39;95617.69;4931097;29;20074;-81
2022/01/29 00:45:36;;;;;;;16.30;6.57;;;;;;;-0.02;63.98;95592.19;4917483;29;20031;-81
2022/01/29 00:48:03;;;;;;;15.25;5.70;;;;;;;0.21;64.29;95630.16;4932848;29;20043;-81
2022/01/29 00:50:28;;;;;;;17.23;7.13;;;;;;;0.36;64.34;95675.13;4918165;29;20024;-81
2022/01/29 00:52:54;;;;;;;16.58;6.55;;;;;;;-0.17;64.38;95570.69;4932356;29;20104;-81
2022/01/29 00:55:19;;;;;;;14.25;6.38;;;;;;;0.03;64.64;95591.59;4916901;29;20040;-81
2022/01/29 00:57:45;;;;;;;14.20;6.57;;;;;;;0.66;65.25;95714.72;4949803;29;20352;-81
2022/01/29 01:00:14;;;;;;;15.02;7.28;;;;;;;0.32;65.29;95651.22;4919015;29;20091;-81
2022/01/29 01:02:40;;;;;;;16.48;7.20;;;;;;;0.57;65.30;95685.41;4918581;29;20044;-81
2022/01/29 01:05:06;;;;;;;12.48;6.15;;;;;;;0.35;64.88;95643.00;4918241;29;20468;-81
2022/01/29 01:07:32;;;;;;;13.98;6.38;;;;;;;0.18;65.29;95609.66;4917905;29;20114;-82
2022/01/29 01:09:58;;;;;;;18.83;8.07;;;;;;;0.14;64.93;95603.25;4918527;29;20076;-82
2022/01/29 01:12:24;;;;;;;14.88;6.90;;;;;;;0.31;65.38;95640.97;4932063;29;20060;-82
2022/01/29 01:14:49;;;;;;;16.73;7.55;;;;;;;0.14;66.00;95609.28;4917572;29;20044;-82
2022/01/29 01:17:15;;;;;;;11.63;6.85;;;;;;;0.01;67.04;95598.78;4917415;29;20079;-81
2022/01/29 01:19:40;;;;;;;21.55;9.18;;;;;;;0.05;66.64;95614.88;4917507;29;20040;-81
2022/01/29 01:22:06;;;;;;;20.75;7.85;;;;;;;0.61;67.14;95689.19;4917292;29;20035;-81
2022/01/29 01:24:32;;;;;;;19.45;8.73;;;;;;;0.44;66.64;95633.19;4918968;29;20047;-80
2022/01/29 01:26:57;;;;;;;20.13;9.40;;;;;;;-0.02;66.58;95578.34;4932454;29;20059;-81
2022/01/29 01:29:23;;;;;;;18.27;8.48;;;;;;;0.54;67.18;95690.19;4918262;29;20036;-81
2022/01/29 01:31:48;;;;;;;19.88;9.27;;;;;;;0.63;66.58;95687.19;4917761;29;20500;-81
2022/01/29 01:34:18;;;;;;;17.52;7.78;;;;;;;0.10;66.90;95610.66;4918321;29;20450;-81
2022/01/29 01:36:49;;;;;;;16.80;7.82;;;;;;;0.56;66.93;95683.78;4918816;29;20056;-81
2022/01/29 01:39:18;;;;;;;17.40;9.07;;;;;;;0.04;67.17;95593.19;4917083;29;20130;-80
2022/01/29 01:41:54;;;;;;;13.98;7.57;;;;;;;0.36;67.05;95643.81;4917354;29;20118;-81
2022/01/29 01:44:19;;;;;;;19.77;9.25;;;;;;;0.43;67.32;95652.47;4918337;29;20044;-80
2022/01/29 01:46:46;;;;;;;21.10;9.13;;;;;;;0.59;67.54;95680.78;4916883;29;20511;-82
2022/01/29 01:49:12;;;;;;;19.10;8.20;;;;;;;-0.53;67.97;95515.44;4931715;29;20036;-81
2022/01/29 01:51:37;;;;;;;17.10;8.52;;;;;;;0.37;67.85;95666.31;4931696;29;20028;-81
2022/01/29 01:54:03;;;;;;;20.00;10.05;;;;;;;-0.29;67.71;95553.19;4915095;29;20048;-81
2022/01/29 01:56:29;;;;;;;15.55;7.25;;;;;;;0.17;67.22;95632.34;4916616;29;20519;-81
2022/01/29 01:58:58;;;;;;;18.33;9.07;;;;;;;0.16;67.58;95632.53;4915245;29;20051;-81
2022/01/29 02:01:23;;;;;;;14.93;8.40;;;;;;;-0.09;67.73;95593.97;4947609;29;20036;-81
2022/01/29 02:03:49;;;;;;;22.92;9.43;;;;;;;0.09;68.28;95634.31;4917266;29;20400;-81
2022/01/29 02:06:15;;;;;;;15.07;8.35;;;;;;;0.09;68.60;95629.91;4917285;29;20044;-81
2022/01/29 02:08:40;;;;;;;24.73;9.48;;;;;;;0.51;68.68;95707.06;4916028;29;20043;-81
2022/01/29 02:11:07;;;;;;;15.70;8.27;;;;;;;0.45;68.61;95694.00;4917339;29;20452;-80
2022/01/29 02:13:33;;;;;;;18.60;8.02;;;;;;;0.30;68.27;95647.22;4916987;29;20064;-81
2022/01/29 02:16:01;;;;;;;18.08;8.57;;;;;;;0.22;69.20;95663.88;4917747;29;20040;-82
2022/01/29 02:18:26;;;;;;;18.42;8.60;;;;;;;-0.28;68.70;95573.06;4916360;29;20088;-81
2022/01/29 02:20:53;;;;;;;14.55;8.68;;;;;;;-0.10;68.70;95615.03;4931551;29;20496;-81
2022/01/29 02:23:19;;;;;;;17.83;8.70;;;;;;;0.35;68.47;95683.94;4902999;29;20032;-81
2022/01/29 02:25:59;;;;;;;17.90;7.85;;;;;;;0.43;68.79;95709.88;1115290;28;10021811;-80
2022/01/29 02:28:25;;;;;;;16.00;8.52;;;;;;;0.19;68.77;95671.25;4580747;29;10001475;-81
2022/01/29 02:31:05;;;;;;;18.20;8.90;;;;;;;-0.16;69.23;95606.19;1110619;28;10021865;-81
2022/01/29 02:33:34;;;;;;;17.60;9.32;;;;;;;-0.09;68.94;95603.59;4578662;29;10001682;-81
2022/01/29 02:36:00;;;;;;;22.20;8.80;;;;;;;-0.19;68.59;95593.53;4918471;29;20091;-81
2022/01/29 02:38:27;;;;;;;19.55;9.43;;;;;;;0.42;69.89;95704.84;4947840;29;20040;-81
2022/01/29 02:40:58;;;;;;;18.58;9.48;;;;;;;-0.05;69.49;95631.69;4931706;29;20036;-81
2022/01/29 02:43:32;;;;;;;14.48;8.80;;;;;;;-0.14;69.38;95625.03;4917878;29;20032;-81
2022/01/29 02:46:07;;;;;;;16.65;8.65;;;;;;;0.39;69.75;95696.38;4915755;29;20036;-80
2022/01/29 02:48:32;;;;;;;14.75;8.90;;;;;;;-0.11;69.19;95605.59;4917468;29;20518;-81
2022/01/29 02:50:58;;;;;;;16.00;8.13;;;;;;;0.05;69.97;95644.34;4917512;29;20048;-81
2022/01/29 02:53:24;;;;;;;25.13;10.90;;;;;;;0.48;69.50;95704.03;4917794;29;20403;-81
2022/01/29 02:55:49;;;;;;;17.95;9.13;;;;;;;-0.08;69.45;95632.06;4917355;29;20484;-81
2022/01/29 02:58:15;;;;;;;18.48;9.80;;;;;;;-0.27;69.30;95598.94;4916126;29;20071;-80
2022/01/29 03:00:40;;;;;;;15.88;7.85;;;;;;;0.50;69.12;95707.25;4917514;29;20048;-79
2022/01/29 03:03:06;;;;;;;16.92;8.57;;;;;;;-0.24;69.37;95590.72;4918638;29;20036;-79
2022/01/29 03:05:32;;;;;;;17.83;8.57;;;;;;;0.09;68.81;95645.56;4918476;29;20032;-79
2022/01/29 03:07:57;;;;;;;15.52;8.10;;;;;;;0.01;68.75;95622.25;4918054;29;20047;-80
2022/01/29 03:10:25;;;;;;;15.25;8.27;;;;;;;0.22;68.43;95650.00;4917310;29;20032;-79
2022/01/29 03:12:51;;;;;;;14.95;7.13;;;;;;;0.00;67.82;95621.47;4949674;28;20062;-78
2022/01/29 03:15:17;;;;;;;12.80;7.63;;;;;;;0.62;68.24;95690.00;4917377;29;20028;-78
2022/01/29 03:17:42;;;;;;;13.88;7.97;;;;;;;0.49;68.45;95695.22;4919403;29;20139;-78
2022/01/29 03:20:09;;;;;;;12.68;7.45;;;;;;;0.36;68.17;95672.50;4949125;28;20036;-79
2022/01/29 03:22:34;;;;;;;14.55;7.70;;;;;;;0.28;68.36;95670.09;4918821;29;20078;-78
2022/01/29 03:24:59;;;;;;;12.93;6.93;;;;;;;-0.34;67.88;95576.44;4918557;29;20508;-78
2022/01/29 03:27:25;;;;;;;14.27;6.93;;;;;;;-0.37;68.48;95593.28;4919013;29;20043;-79
2022/01/29 03:29:50;;;;;;;14.20;7.93;;;;;;;-0.12;68.69;95617.03;4947869;29;20032;-78
2022/01/29 03:32:16;;;;;;;12.07;6.90;;;;;;;0.39;68.35;95688.56;4947695;28;20032;-79
2022/01/29 03:34:41;;;;;;;13.68;7.00;;;;;;;-1.08;68.24;95467.00;4917650;29;20036;-78
2022/01/29 03:37:07;;;;;;;12.27;6.95;;;;;;;-0.16;68.06;95608.00;4917178;29;20040;-78
2022/01/29 03:39:35;;;;;;;13.25;7.57;;;;;;;-0.44;67.72;95564.59;4916734;29;20514;-79
2022/01/29 03:42:04;;;;;;;17.20;7.45;;;;;;;-0.36;68.26;95581.84;4946881;29;20043;-79
2022/01/29 03:44:30;;;;;;;14.93;7.47;;;;;;;-0.18;67.97;95626.44;4917202;29;20024;-79
2022/01/29 03:46:56;;;;;;;14.63;7.18;;;;;;;0.27;67.91;95694.56;4946965;29;20039;-79
2022/01/29 03:49:21;;;;;;;15.05;7.35;;;;;;;-0.41;67.90;95582.44;4915378;29;20131;-78
2022/01/29 03:51:47;;;;;;;12.35;6.25;;;;;;;-0.31;67.59;95597.72;4916855;29;20020;-78
2022/01/29 03:54:12;;;;;;;13.45;7.55;;;;;;;-0.19;68.04;95634.44;4915179;29;20038;-79
2022/01/29 03:56:38;;;;;;;12.68;6.55;;;;;;;-0.08;67.95;95637.28;4946234;28;20075;-79
2022/01/29 03:59:03;;;;;;;11.55;6.43;;;;;;;-0.43;68.01;95578.44;4915709;29;20043;-79
2022/01/29 04:01:29;;;;;;;12.60;6.75;;;;;;;-0.29;68.06;95611.34;4915761;29;20472;-79
2022/01/29 04:03:55;;;;;;;14.40;7.47;;;;;;;-0.86;68.16;95521.38;4946231;29;20032;-78
2022/01/29 04:06:20;;;;;;;12.27;7.07;;;;;;;-0.69;68.16;95534.88;4915025;29;20039;-79
2022/01/29 04:08:46;;;;;;;15.48;7.55;;;;;;;0.31;68.19;95691.34;4915613;29;20035;-79
2022/01/29 04:11:13;;;;;;;19.00;8.20;;;;;;;0.20;67.76;95660.63;4945814;29;20032;-79
2022/01/29 04:13:46;;;;;;;14.88;7.65;;;;;;;0.10;68.18;95655.00;4915488;29;20082;-79
2022/01/29 04:16:13;;;;;;;15.75;7.95;;;;;;;-0.12;67.68;95632.66;4915460;29;20036;-79
2022/01/29 04:18:39;;;;;;;20.42;8.10;;;;;;;0.36;67.97;95694.19;4915527;29;20114;-79
2022/01/29 04:21:05;;;;;;;21.83;6.90;;;;;;;0.36;68.13;95696.00;4913833;29;20040;-79
2022/01/29 04:23:31;;;;;;;13.70;7.25;;;;;;;-0.08;67.53;95618.25;4914980;29;20035;-79
2022/01/29 04:25:57;;;;;;;14.45;7.10;;;;;;;0.36;68.22;95690.78;4929803;29;20515;-79
2022/01/29 04:28:28;;;;;;;17.55;7.70;;;;;;;0.38;68.03;95699.22;4903819;29;20059;-79
2022/01/29 04:31:06;;;;;;;25.70;10.55;;;;;;;-0.10;68.57;95644.50;1417476;28;10022848;-79
2022/01/29 04:33:32;;;;;;;23.85;10.10;;;;;;;-0.45;67.92;95576.00;3912888;29;10001078;-80
2022/01/29 04:36:00;;;;;;;18.60;8.90;;;;;;;0.07;68.06;95665.03;4933923;29;20102;-79
2022/01/29 04:38:27;;;;;;;21.50;9.35;;;;;;;-0.15;68.07;95620.81;4964772;28;20126;-79
2022/01/29 04:40:55;;;;;;;24.90;9.07;;;;;;;0.17;68.14;95692.31;4933773;29;20115;-79
2022/01/29 04:43:21;;;;;;;16.73;8.48;;;;;;;0.24;68.63;95719.22;4934327;29;20067;-79
2022/01/29 04:45:46;;;;;;;14.57;8.20;;;;;;;0.19;68.26;95690.31;4933969;29;20031;-78
2022/01/29 04:48:12;;;;;;;14.45;7.53;;;;;;;-0.27;68.32;95619.78;4931567;29;20039;-78
2022/01/29 04:50:38;;;;;;;17.48;7.93;;;;;;;-0.22;68.42;95638.22;4933693;29;20085;-78
2022/01/29 04:53:04;;;;;;;15.02;7.97;;;;;;;-0.56;67.45;95565.34;4932441;29;20144;-79
2022/01/29 04:55:30;;;;;;;12.43;6.82;;;;;;;-0.14;67.69;95635.47;4933484;29;20055;-78
2022/01/29 04:57:55;;;;;;;13.70;6.65;;;;;;;-0.44;66.86;95579.41;4934283;29;20050;-78
2022/01/29 05:00:21;;;;;;;11.32;6.40;;;;;;;0.07;67.01;95659.81;4933624;29;20055;-79
2022/01/29 05:02:55;;;;;;;10.82;6.45;;;;;;;0.31;68.05;95706.19;4948075;29;20047;-79
2022/01/29 05:05:21;;;;;;;11.13;6.25;;;;;;;0.37;67.35;95714.06;4933718;29;20122;-79
2022/01/29 05:07:47;;;;;;;11.07;6.25;;;;;;;-0.22;67.08;95619.19;4934022;29;20119;-79
2022/01/29 05:10:12;;;;;;;13.55;6.80;;;;;;;-0.16;68.01;95641.88;4933746;29;20361;-79
2022/01/29 05:15:24;;;;;;;;;;;;;;;0.24;68.23;95719.22;4934189;29;20042;-78
2022/01/29 05:28:45;;;;;;;12.85;8.15;;;;;;;0.07;68.86;95701.53;4933464;29;20090;-78
2022/01/29 05:31:10;;;;;;;15.57;8.15;;;;;;;-0.30;69.08;95637.59;4933886;29;20067;-79
2022/01/29 05:33:36;;;;;;;17.25;7.75;;;;;;;0.10;69.37;95716.78;4933551;29;20042;-79
2022/01/29 05:36:01;;;;;;;18.58;8.63;;;;;;;-0.29;69.18;95658.25;4933758;29;20502;-79
2022/01/29 05:38:27;;;;;;;19.65;8.32;;;;;;;0.07;69.11;95704.13;4933343;29;20062;-78
2022/01/29 05:40:54;;;;;;;14.05;8.10;;;;;;;-0.37;69.37;95634.97;4948070;29;20122;-79
2022/01/29 05:43:20;;;;;;;13.60;8.05;;;;;;;0.07;69.47;95714.56;4948223;29;20051;-79
2022/01/29 05:45:46;;;;;;;17.73;8.18;;;;;;;-0.36;70.08;95656.63;4933313;29;20434;-79
2022/01/29 05:48:11;;;;;;;12.52;7.53;;;;;;;-0.68;70.28;95606.78;4931693;29;20119;-79
2022/01/29 05:50:37;;;;;;;16.30;7.95;;;;;;;-0.57;70.66;95637.50;4931803;29;20374;-79
2022/01/29 05:53:03;;;;;;;16.90;8.68;;;;;;;-0.34;70.03;95665.06;4947653;29;20040;-79
2022/01/29 05:55:28;;;;;;;17.83;8.50;;;;;;;0.02;70.22;95724.75;4933280;29;20059;-79
2022/01/29 05:57:54;;;;;;;17.10;9.02;;;;;;;-0.41;70.19;95684.06;4963998;28;20079;-78
2022/01/29 06:00:20;;;;;;;15.38;8.20;;;;;;;-0.19;70.54;95723.88;4935461;29;20051;-78
2022/01/29 06:02:46;;;;;;;19.25;9.07;;;;;;;-0.67;70.81;95657.06;4937434;29;20120;-79
2022/01/29 06:05:11;;;;;;;19.13;9.25;;;;;;;-0.63;71.11;95668.72;4936750;29;20040;-78
2022/01/29 06:07:36;;;;;;;15.40;8.68;;;;;;;-0.68;71.08;95669.28;4937276;29;20036;-78
2022/01/29 06:10:02;;;;;;;14.30;8.32;;;;;;;0.06;71.28;95773.75;4936460;29;20521;-78
2022/01/29 06:12:28;;;;;;;17.05;8.85;;;;;;;-0.48;71.63;95682.44;4936553;29;20042;-78
2022/01/29 06:14:53;;;;;;;16.65;8.90;;;;;;;-0.75;71.22;95641.59;4936530;29;20040;-78
2022/01/29 06:17:19;;;;;;;16.10;9.02;;;;;;;-0.47;71.05;95691.88;4936832;29;20043;-78
2022/01/29 06:19:44;;;;;;;15.77;8.52;;;;;;;-0.05;71.73;95756.03;4934687;29;20115;-78
2022/01/29 06:22:13;;;;;;;18.73;10.10;;;;;;;0.03;71.82;95781.94;4936484;29;20483;-79
2022/01/29 06:24:38;;;;;;;19.65;8.80;;;;;;;-0.36;70.99;95704.34;4936429;29;20035;-79
2022/01/29 06:27:04;;;;;;;19.05;9.18;;;;;;;-0.71;71.46;95664.47;4967093;28;20439;-78
2022/01/29 06:29:42;;;;;;;17.23;9.63;;;;;;;-0.62;71.46;95665.94;3898975;28;10001885;-79
2022/01/29 06:32:07;;;;;;;20.67;9.25;;;;;;;-0.23;71.50;95725.25;1694061;29;10002137;-79
2022/01/29 06:34:33;;;;;;;18.08;8.98;;;;;;;0.15;71.42;95772.59;4916233;29;20036;-79
2022/01/29 06:36:58;;;;;;;15.73;9.45;;;;;;;-0.05;71.60;95750.81;4917116;29;20062;-78
2022/01/29 06:39:24;;;;;;;16.65;9.15;;;;;;;-0.16;70.77;95733.13;4917534;29;20039;-78
2022/01/29 06:41:49;;;;;;;16.92;8.50;;;;;;;0.21;70.54;95784.84;4917314;29;20051;-78
2022/01/29 06:44:14;;;;;;;21.58;9.48;;;;;;;0.26;71.04;95781.66;4916781;29;20044;-79
2022/01/29 06:46:40;;;;;;;17.15;9.25;;;;;;;-0.58;71.02;95679.38;4915502;29;20036;-79
2022/01/29 06:49:05;;;;;;;19.52;9.20;;;;;;;-0.37;70.97;95720.97;4917228;29;20071;-79
2022/01/29 06:51:31;;;;;;;13.55;8.60;;;;;;;0.17;71.33;95798.47;4915653;29;20060;-79
2022/01/29 06:53:56;;;;;;;17.42;8.68;;;;;;;-0.79;71.48;95654.22;4916730;29;20127;-79
2022/01/29 06:56:22;;;;;;;15.88;8.98;;;;;;;-0.04;71.11;95762.84;4916216;29;20123;-79
2022/01/29 06:58:47;;;;;;;15.63;9.25;;;;;;;-1.00;70.64;95595.22;4916430;29;20024;-79
2022/01/29 07:01:12;;;;;;;17.27;9.57;;;;;;;0.31;70.77;95789.69;4917317;29;20444;-79
2022/01/29 07:03:38;;;;;;;17.15;9.40;;;;;;;-0.77;70.37;95646.22;4915344;29;20107;-80
2022/01/29 07:06:04;;;;;;;13.30;8.90;;;;;;;-0.11;70.68;95733.34;4915529;29;20471;-79
2022/01/29 07:08:29;;;;;;;12.80;8.20;;;;;;;-0.07;70.15;95735.34;4916581;29;20086;-79
2022/01/29 07:10:55;;;;;;;21.77;9.05;;;;;;;-0.27;70.69;95705.00;4915201;29;20098;-79
2022/01/29 07:13:21;;;;;;;11.93;7.97;;;;;;;0.51;70.79;95814.06;4915003;29;20072;-79
2022/01/29 07:15:47;;;;;;;13.25;8.98;;;;;;;-0.07;69.48;95732.75;4917033;29;20043;-79
2022/01/29 07:18:12;;;;;;;20.98;10.65;;;;;;;0.40;70.81;95814.63;4916797;29;20040;-79
2022/01/29 07:20:38;;;;;;;15.82;8.55;;;;;;;-0.05;70.09;95738.59;4916692;29;20436;-79
2022/01/29 07:23:06;;;;;;;12.77;8.77;;;;;;;-0.05;70.25;95756.84;4917380;29;20043;-79
2022/01/29 07:25:32;;;;;;;17.13;8.40;;;;;;;0.06;70.40;95768.53;4918193;29;20036;-79
2022/01/29 07:27:57;;;;;;;15.30;8.70;;;;;;;-0.12;70.76;95742.16;4917224;29;20048;-79
2022/01/29 07:30:23;;;;;;;16.45;9.13;;;;;;;-0.18;70.49;95748.97;4915246;29;20040;-79
2022/01/29 07:32:48;;;;;;;19.08;9.35;;;;;;;-0.21;70.89;95748.53;4915782;29;20032;-79
2022/01/29 07:35:14;;;;;;;15.45;9.48;;;;;;;-0.07;70.44;95769.25;4916324;29;20112;-79
2022/01/29 07:37:40;;;;;;;28.13;10.85;;;;;;;-0.35;71.12;95732.00;4914651;29;20043;-78
2022/01/29 07:40:06;;;;;;;18.10;10.55;;;;;;;-0.23;70.45;95751.31;4916768;29;20044;-79
2022/01/29 07:42:31;;;;;;;16.42;9.13;;;;;;;-0.20;70.16;95743.13;4914607;29;20527;-79
2022/01/29 07:44:57;;;;;;;19.55;8.60;;;;;;;0.07;70.59;95793.63;4916549;29;20052;-79
2022/01/29 07:47:22;;;;;;;18.10;10.13;;;;;;;0.11;70.15;95794.81;4946373;28;20130;-79
2022/01/29 07:49:48;;;;;;;19.70;9.88;;;;;;;0.59;70.33;95847.84;4914845;29;20036;-79
2022/01/29 07:52:13;;;;;;;14.55;8.10;;;;;;;-0.17;69.60;95718.47;4914998;29;20056;-78
2022/01/29 07:54:39;;;;;;;18.40;8.95;;;;;;;0.29;69.20;95794.31;4914085;29;20028;-78
2022/01/29 07:57:04;;;;;;;14.60;8.20;;;;;;;0.60;69.52;95851.25;4930075;29;20047;-78
2022/01/29 07:59:30;;;;;;;18.38;8.95;;;;;;;0.39;69.23;95811.19;4915745;29;20088;-79
2022/01/29 08:01:55;;;;;;;22.08;8.52;;;;;;;0.02;69.63;95756.06;4914355;29;20123;-79
2022/01/29 08:04:24;;;;;;;14.70;8.75;;;;;;;-0.10;70.02;95761.84;4913829;29;20351;-79
2022/01/29 08:06:50;;;;;;;13.90;8.95;;;;;;;0.10;70.13;95781.97;4915452;29;20841;-79
2022/01/29 08:09:15;;;;;;;16.52;9.15;;;;;;;0.25;70.28;95786.06;4915534;29;20458;-79
2022/01/29 08:11:41;;;;;;;22.58;9.32;;;;;;;0.59;69.81;95842.63;4916018;29;20040;-79
2022/01/29 08:14:06;;;;;;;14.75;9.00;;;;;;;0.48;70.09;95814.44;4913869;29;20119;-79
2022/01/29 08:16:31;;;;;;;13.55;7.95;;;;;;;0.31;69.31;95790.50;4915689;29;20054;-79
2022/01/29 08:18:57;;;;;;;28.45;11.10;;;;;;;0.78;70.29;95864.56;4913988;29;20062;-79
2022/01/29 08:21:22;;;;;;;20.38;9.05;;;;;;;0.86;70.04;95871.41;4929291;29;20063;-78
2022/01/29 08:23:48;;;;;;;17.77;9.52;;;;;;;0.24;69.53;95783.63;4945289;28;20039;-79
2022/01/29 08:26:13;;;;;;;34.25;9.40;;;;;;;0.03;69.96;95739.41;4915485;29;20036;-78
2022/01/29 08:28:39;;;;;;;25.55;11.30;;;;;;;0.80;70.10;95833.03;4877856;28;20040;-78
2022/01/29 08:31:20;;;;;;;12.75;8.82;;;;;;;0.59;70.49;95826.16;803397;28;10003181;-78
2022/01/29 08:33:45;;;;;;;16.52;9.57;;;;;;;0.43;69.61;95795.16;4945274;29;20280;-78
2022/01/29 08:36:11;;;;;;;20.20;10.10;;;;;;;0.91;69.88;95866.44;4915264;29;20056;-79
2022/01/29 08:38:36;;;;;;;22.10;10.15;;;;;;;0.15;69.83;95751.72;4915161;29;20048;-79
2022/01/29 08:41:03;;;;;;;27.92;10.77;;;;;;;0.89;70.09;95869.22;4913444;29;20535;-79
2022/01/29 08:43:28;;;;;;;27.73;10.45;;;;;;;0.34;69.79;95782.28;4944832;29;20098;-79
2022/01/29 08:45:55;;;;;;;19.15;9.82;;;;;;;0.88;69.34;95892.91;4914986;29;20043;-79
2022/01/29 08:48:22;;;;;;;26.30;11.48;;;;;;;0.75;70.78;95871.00;4913656;29;20575;-79
2022/01/29 08:50:47;;;;;;;15.20;9.18;;;;;;;0.86;69.97;95887.88;4945505;29;20151;-79
2022/01/29 08:53:15;;;;;;;22.38;10.00;;;;;;;0.76;70.78;95877.78;4915078;29;20131;-79
2022/01/29 08:55:40;;;;;;;13.85;8.57;;;;;;;0.47;69.88;95854.59;4914947;29;20051;-79
2022/01/29 08:58:08;;;;;;;16.75;10.10;;;;;;;0.72;70.48;95886.22;4929118;29;20028;-79
2022/01/29 09:00:38;;;;;;;20.90;10.50;;;;;;;0.14;69.76;95791.84;4914598;29;20080;-79
2022/01/29 09:03:04;;;;;;;20.83;10.10;;;;;;;0.45;70.08;95827.09;4914781;29;20086;-79
2022/01/29 09:05:30;;;;;;;20.15;9.70;;;;;;;0.90;69.68;95891.72;4914993;29;20035;-79
2022/01/29 09:07:56;;;;;;;16.75;9.75;;;;;;;0.95;69.86;95891.94;4913417;29;20475;-79
2022/01/29 09:10:22;;;;;;;18.65;11.52;;;;;;;0.75;69.36;95812.75;4914204;29;20047;-79
2022/01/29 09:12:47;;;;;;;23.50;11.35;;;;;;;0.87;69.32;95831.25;4913192;29;20075;-79
2022/01/29 09:15:13;;;;;;;27.65;11.98;;;;;;;1.25;69.72;95881.16;4913129;29;20150;-79
2022/01/29 09:17:39;;;;;;;24.27;11.93;;;;;;;0.60;68.67;95772.94;4914210;29;20176;-79
2022/01/29 09:20:10;;;;;;;23.08;10.68;;;;;;;0.92;68.50;95803.53;4944492;29;20610;-79
2022/01/29 09:22:36;;;;;;;31.20;11.43;;;;;;;1.47;68.26;95883.41;4914515;29;20038;-79
2022/01/29 09:25:02;;;;;;;22.65;10.38;;;;;;;1.57;67.74;95874.38;4944910;29;20039;-79
2022/01/29 09:27:28;;;;;;;21.15;11.80;;;;;;;1.25;67.60;95810.63;4914800;29;20032;-79
2022/01/29 09:29:53;;;;;;;31.60;12.07;;;;;;;1.41;67.95;95839.78;4914461;29;20040;-79
2022/01/29 09:32:19;;;;;;;28.08;10.63;;;;;;;1.15;68.25;95800.53;4914608;29;20491;-79
2022/01/29 09:34:44;;;;;;;28.23;11.10;;;;;;;1.25;68.21;95813.22;4918030;29;20036;-79
2022/01/29 09:37:10;;;;;;;26.40;11.02;;;;;;;1.31;67.84;95812.41;4918254;29;20044;-79
2022/01/29 09:39:35;;;;;;;23.52;11.20;;;;;;;1.31;67.15;95808.00;4918868;29;20040;-79
2022/01/29 09:42:01;;;;;;;18.25;10.60;;;;;;;1.08;67.49;95790.09;4948863;29;20048;-79
2022/01/29 09:44:27;;;;;;;20.23;9.88;;;;;;;1.01;67.58;95807.56;4917798;29;20040;-79
2022/01/29 09:46:53;;;;;;;25.30;10.35;;;;;;;1.16;67.91;95828.28;4932571;29;20036;-79
2022/01/29 09:49:19;;;;;;;15.13;9.73;;;;;;;1.48;67.69;95871.94;4916520;29;20169;-80
2022/01/29 09:51:45;;;;;;;18.92;10.70;;;;;;;1.11;68.34;95801.97;4917898;29;20507;-78
2022/01/29 09:54:10;;;;;;;20.83;10.18;;;;;;;0.95;66.82;95765.78;4931794;29;20039;-79
2022/01/29 09:56:36;;;;;;;19.38;11.05;;;;;;;1.09;67.65;95790.91;4917838;29;20044;-79
2022/01/29 09:59:02;;;;;;;23.50;12.15;;;;;;;1.50;67.60;95856.06;4917611;29;20060;-78
2022/01/29 10:01:28;;;;;;;17.70;9.40;;;;;;;0.91;66.80;95788.09;4932054;29;20063;-78
2022/01/29 10:04:05;;;;;;;22.85;9.30;;;;;;;1.53;66.76;95887.03;4917804;29;20044;-78
2022/01/29 10:06:30;;;;;;;19.90;10.20;;;;;;;1.29;66.25;95853.66;4918016;29;20427;-78
2022/01/29 10:08:56;;;;;;;16.20;8.98;;;;;;;1.47;65.42;95872.94;4917840;29;20059;-79
2022/01/29 10:11:25;;;;;;;20.05;9.70;;;;;;;1.01;66.82;95820.63;4917322;29;20110;-79
2022/01/29 10:13:52;;;;;;;14.73;7.93;;;;;;;0.94;66.73;95811.97;4917396;29;20103;-78
2022/01/29 10:16:20;;;;;;;17.35;8.30;;;;;;;1.40;66.24;95890.44;4948281;29;20546;-78
2022/01/29 10:19:03;;;;;;;14.68;8.32;;;;;;;1.32;66.20;95887.19;4917933;29;20480;-78
2022/01/29 10:21:34;;;;;;;16.52;8.30;;;;;;;1.20;67.30;95879.16;4931948;29;20511;-79
2022/01/29 10:24:05;;;;;;;16.33;10.05;;;;;;;0.67;68.22;95826.78;4917509;29;20480;-79
2022/01/29 10:26:42;;;;;;;22.65;10.50;;;;;;;0.77;68.96;95845.47;4948264;29;20115;-78
2022/01/29 10:29:28;;;;;;;22.05;11.07;;;;;;;1.11;69.22;95882.94;4917464;29;20039;-79
2022/01/29 10:31:55;;;;;;;18.45;11.30;;;;;;;1.13;70.08;95878.34;4917266;29;20051;-79
2022/01/29 10:34:36;;;;;;;21.45;11.45;;;;;;;0.91;69.02;95867.22;4917054;29;20036;-78
2022/01/29 10:37:21;;;;;;;21.73;10.85;;;;;;;0.53;69.64;95804.25;4917358;29;20483;-79
2022/01/29 10:39:48;;;;;;;20.55;11.32;;;;;;;0.92;70.04;95858.38;4915434;29;20040;-78
2022/01/29 10:42:27;;;;;;;23.90;12.27;;;;;;;1.16;69.26;95885.75;4917081;29;20122;-78
2022/01/29 10:45:02;;;;;;;23.13;11.88;;;;;;;0.96;69.48;95850.97;4916511;29;20040;-78
2022/01/29 10:47:29;;;;;;;23.98;11.27;;;;;;;0.96;69.80;95845.75;4916996;29;20034;-78
2022/01/29 10:49:59;;;;;;;19.23;11.20;;;;;;;1.04;69.84;95893.38;4917104;29;20039;-79
2022/01/29 10:52:31;;;;;;;26.77;12.05;;;;;;;1.05;70.53;95886.34;4916399;29;20032;-78
2022/01/29 10:55:05;;;;;;;21.50;11.70;;;;;;;0.50;70.79;95801.22;4915656;29;20040;-78
2022/01/29 10:57:39;;;;;;;27.17;12.65;;;;;;;1.13;70.16;95897.44;4916800;29;20040;-78
2022/01/29 11:00:07;;;;;;;29.33;13.05;;;;;;;0.54;70.70;95794.59;4944807;29;20428;-78
2022/01/29 11:02:33;;;;;;;24.13;13.32;;;;;;;0.88;70.93;95848.53;4916503;29;20047;-79
2022/01/29 11:05:04;;;;;;;25.77;13.20;;;;;;;1.14;70.21;95895.63;4917147;29;20036;-78
2022/01/29 11:07:31;;;;;;;28.45;12.82;;;;;;;0.51;70.56;95806.25;4917585;29;20567;-78
2022/01/29 11:09:59;;;;;;;24.95;12.60;;;;;;;0.38;70.66;95761.84;4916125;29;20040;-78
2022/01/29 11:12:27;;;;;;;28.13;13.55;;;;;;;1.00;69.60;95839.91;4915196;29;20024;-79
2022/01/29 11:14:56;;;;;;;25.38;12.35;;;;;;;1.13;69.18;95836.53;4916413;29;20051;-78
2022/01/29 11:17:25;;;;;;;27.00;12.95;;;;;;;1.09;69.32;95841.34;4916454;29;20036;-79
2022/01/29 11:19:51;;;;;;;29.55;12.95;;;;;;;0.51;69.41;95751.44;4916571;29;20495;-79
2022/01/29 11:22:22;;;;;;;22.52;13.15;;;;;;;0.87;69.40;95826.03;4916080;29;20036;-78
2022/01/29 11:24:53;;;;;;;26.80;13.15;;;;;;;0.72;69.54;95790.44;4914717;29;20194;-78
2022/01/29 11:27:23;;;;;;;31.65;16.08;;;;;;;0.78;69.96;95786.22;4916216;29;20044;-78
2022/01/29 11:30:10;;;;;;;22.23;12.38;;;;;;;1.31;68.98;95868.09;4946932;29;20036;-79
2022/01/29 11:32:54;;;;;;;26.55;12.80;;;;;;;1.23;69.48;95863.06;4914457;29;20039;-79
2022/01/29 11:35:20;;;;;;;25.80;12.63;;;;;;;1.12;70.02;95866.28;4915094;29;20135;-79
2022/01/29 11:37:52;;;;;;;22.55;12.50;;;;;;;1.12;70.29;95876.72;4916319;29;20156;-79
2022/01/29 11:40:17;;;;;;;25.90;13.27;;;;;;;1.14;69.80;95875.50;4916248;29;20055;-79
2022/01/29 11:42:52;;;;;;;24.50;13.60;;;;;;;1.32;69.74;95863.69;4946186;29;20044;-79